createdAt,value
2018-05-27T00:00:30.421Z,84.92
2018-05-27T00:01:30.418Z,85.11
2018-05-27T00:02:30.418Z,84.92
2018-05-27T00:03:30.413Z,85.55
2018-05-27T00:04:30.410Z,85.88
2018-05-27T00:05:30.411Z,85.46
2018-05-27T00:06:30.404Z,85.75
2018-05-27T00:07:30.401Z,85.55
2018-05-27T00:08:30.399Z,85.78
2018-05-27T00:09:30.396Z,86.27
2018-05-27T00:10:30.393Z,85.75
2018-05-27T00:11:30.392Z,85.94
2018-05-27T00:12:30.390Z,85.07
2018-05-27T00:13:30.385Z,85.46
2018-05-27T00:14:30.385Z,84.78
2018-05-27T00:15:30.387Z,84.88
2018-05-27T00:16:30.376Z,85.46
2018-05-27T00:17:30.374Z,85.36
2018-05-27T00:18:30.370Z,85.17
2018-05-27T00:19:30.367Z,85.46
2018-05-27T00:20:30.366Z,85.27
2018-05-27T00:21:30.362Z,85.65
2018-05-27T00:22:30.358Z,85.36
2018-05-27T00:23:30.356Z,85.27
2018-05-27T00:24:30.354Z,84.88
2018-05-27T00:25:30.351Z,85.55
2018-05-27T00:26:30.347Z,85.27
2018-05-27T00:27:30.344Z,84.88
2018-05-27T00:28:30.342Z,85.55
2018-05-27T00:29:30.343Z,85.46
2018-05-27T00:30:30.335Z,85.55
2018-05-27T00:31:30.332Z,85.65
2018-05-27T00:32:30.330Z,86.13
2018-05-27T00:33:30.327Z,86.13
2018-05-27T00:34:30.323Z,85.65
2018-05-27T00:35:30.320Z,86.32
2018-05-27T00:36:30.318Z,86.71
2018-05-27T00:37:30.315Z,86.61
2018-05-27T00:38:30.312Z,87.67
2018-05-27T00:39:30.308Z,87.76
2018-05-27T00:40:30.308Z,88.15
2018-05-27T00:41:30.304Z,87.05
2018-05-27T00:42:30.301Z,87.43
2018-05-27T00:43:30.296Z,88.30
2018-05-27T00:44:30.293Z,88.30
2018-05-27T00:45:30.290Z,87.82
2018-05-27T00:46:30.286Z,88.10
2018-05-27T00:47:30.283Z,88.30
2018-05-27T00:48:30.285Z,87.92
2018-05-27T00:49:30.277Z,87.92
2018-05-27T00:51:30.270Z,88.39
2018-05-27T00:52:30.268Z,88.59
2018-05-27T00:53:30.275Z,89.07
2018-05-27T00:54:30.260Z,88.87
2018-05-27T00:55:30.258Z,89.36
2018-05-27T00:56:30.255Z,89.74
2018-05-27T00:57:30.457Z,89.69
2018-05-27T00:58:30.247Z,89.74
2018-05-27T00:59:30.244Z,89.93
2018-05-27T01:00:30.245Z,89.60
2018-05-27T01:01:30.239Z,90.27
2018-05-27T01:02:30.234Z,90.17
2018-05-27T01:03:30.232Z,89.69
2018-05-27T01:04:30.228Z,90.08
2018-05-27T01:05:30.225Z,90.75
2018-05-27T01:06:30.221Z,90.94
2018-05-27T01:07:30.218Z,90.56
2018-05-27T01:08:30.215Z,90.84
2018-05-27T01:09:30.212Z,90.94
2018-05-27T01:10:30.207Z,90.94
2018-05-27T01:11:30.204Z,90.46
2018-05-27T01:12:30.201Z,90.84
2018-05-27T01:13:30.200Z,90.75
2018-05-27T01:14:30.193Z,90.75
2018-05-27T01:15:30.191Z,90.75
2018-05-27T01:16:30.193Z,90.46
2018-05-27T01:17:30.184Z,90.84
2018-05-27T01:18:30.181Z,91.23
2018-05-27T01:19:30.177Z,91.23
2018-05-27T01:20:30.174Z,91.42
2018-05-27T01:21:30.171Z,91.23
2018-05-27T01:22:30.166Z,91.33
2018-05-27T01:23:30.165Z,91.61
2018-05-27T01:24:30.160Z,91.61
2018-05-27T01:25:30.159Z,91.90
2018-05-27T01:26:30.152Z,92.29
2018-05-27T01:27:30.152Z,92.77
2018-05-27T01:28:30.145Z,92.67
2018-05-27T01:29:30.143Z,92.00
2018-05-27T01:30:30.147Z,92.29
2018-05-27T01:31:30.137Z,92.77
2018-05-27T01:32:30.133Z,93.05
2018-05-27T01:33:30.129Z,92.96
2018-05-27T01:34:30.128Z,92.86
2018-05-27T01:35:30.125Z,93.15
2018-05-27T01:36:30.118Z,92.67
2018-05-27T01:37:30.116Z,92.38
2018-05-27T01:38:30.111Z,92.19
2018-05-27T01:39:30.108Z,92.48
2018-05-27T01:40:30.105Z,91.71
2018-05-27T01:41:30.104Z,92.38
2018-05-27T01:42:30.097Z,92.57
2018-05-27T01:43:30.094Z,92.67
2018-05-27T01:44:30.092Z,92.67
2018-05-27T01:45:30.088Z,93.15
2018-05-27T01:46:30.084Z,93.44
2018-05-27T01:47:30.080Z,93.82
2018-05-27T01:48:30.078Z,93.63
2018-05-27T01:49:30.079Z,93.25
2018-05-27T01:50:30.070Z,93.05
2018-05-27T01:51:30.067Z,93.54
2018-05-27T01:52:30.070Z,93.34
2018-05-27T01:53:30.060Z,93.82
2018-05-27T01:54:30.056Z,93.44
2018-05-27T01:55:30.055Z,93.05
2018-05-27T01:56:30.050Z,92.77
2018-05-27T01:57:30.046Z,92.38
2018-05-27T01:58:30.042Z,91.90
2018-05-27T01:59:30.039Z,91.23
2018-05-27T02:00:30.035Z,91.81
2018-05-27T02:01:30.034Z,91.90
2018-05-27T02:02:30.028Z,92.57
2018-05-27T02:03:30.030Z,92.38
2018-05-27T02:04:30.021Z,92.00
2018-05-27T02:05:30.018Z,91.90
2018-05-27T02:06:30.017Z,92.19
2018-05-27T02:07:30.011Z,92.19
2018-05-27T02:08:30.008Z,92.67
2018-05-27T02:09:30.005Z,92.29
2018-05-27T02:10:30.002Z,92.57
2018-05-27T02:11:29.997Z,93.44
2018-05-27T02:12:29.994Z,93.34
2018-05-27T02:13:29.990Z,93.34
2018-05-27T02:14:29.986Z,93.25
2018-05-27T02:15:29.983Z,92.86
2018-05-27T02:16:29.979Z,93.34
2018-05-27T02:17:29.977Z,93.34
2018-05-27T02:18:29.973Z,93.54
2018-05-27T02:19:29.969Z,92.48
2018-05-27T02:20:29.966Z,93.10
2018-05-27T02:21:29.963Z,93.15
2018-05-27T02:22:30.163Z,93.39
2018-05-27T02:23:29.956Z,93.44
2018-05-27T02:25:29.951Z,93.25
2018-05-27T02:26:29.946Z,93.92
2018-05-27T02:27:29.944Z,93.10
2018-05-27T02:28:29.940Z,93.73
2018-05-27T02:29:29.937Z,93.63
2018-05-27T02:30:29.932Z,93.63
2018-05-27T02:31:29.929Z,93.25
2018-05-27T02:32:29.930Z,93.44
2018-05-27T02:33:29.923Z,93.25
2018-05-27T02:34:29.920Z,93.15
2018-05-27T02:35:29.917Z,93.15
2018-05-27T02:36:29.914Z,93.44
2018-05-27T02:37:29.911Z,93.82
2018-05-27T02:38:29.907Z,93.73
2018-05-27T02:39:29.903Z,93.15
2018-05-27T02:40:29.900Z,93.44
2018-05-27T02:41:29.900Z,93.54
2018-05-27T02:42:29.893Z,94.31
2018-05-27T02:43:29.890Z,94.40
2018-05-27T02:44:29.887Z,94.31
2018-05-27T02:45:29.890Z,94.49
2018-05-27T02:46:29.880Z,94.88
2018-05-27T02:47:29.877Z,94.40
2018-05-27T02:48:29.875Z,94.49
2018-05-27T02:49:29.871Z,94.88
2018-05-27T02:50:29.872Z,94.98
2018-05-27T02:51:29.863Z,95.07
2018-05-27T02:52:29.860Z,95.26
2018-05-27T02:53:29.857Z,95.36
2018-05-27T02:54:29.853Z,95.65
2018-05-27T02:55:29.849Z,95.75
2018-05-27T02:56:29.848Z,95.36
2018-05-27T02:57:29.847Z,95.55
2018-05-27T02:58:29.840Z,96.13
2018-05-27T02:59:29.836Z,96.22
2018-05-27T03:00:29.834Z,96.42
2018-05-27T03:01:29.830Z,95.45
2018-05-27T03:02:29.826Z,96.42
2018-05-27T03:03:30.025Z,96.42
2018-05-27T03:04:29.819Z,96.22
2018-05-27T03:05:29.817Z,95.45
2018-05-27T03:06:29.813Z,96.42
2018-05-27T03:07:29.808Z,96.22
2018-05-27T03:08:29.808Z,96.42
2018-05-27T03:09:29.809Z,96.22
2018-05-27T03:10:29.798Z,96.13
2018-05-27T03:11:29.795Z,95.75
2018-05-27T03:12:29.795Z,95.55
2018-05-27T03:13:29.790Z,95.75
2018-05-27T03:14:29.785Z,95.55
2018-05-27T03:15:29.791Z,95.45
2018-05-27T03:16:29.781Z,95.55
2018-05-27T03:17:29.780Z,95.55
2018-05-27T03:18:29.772Z,96.13
2018-05-27T03:19:29.770Z,96.42
2018-05-27T03:20:29.763Z,96.42
2018-05-27T03:21:29.760Z,96.32
2018-05-27T03:22:29.755Z,96.03
2018-05-27T03:23:29.753Z,96.70
2018-05-27T03:24:29.749Z,96.89
2018-05-27T03:25:29.746Z,96.42
2018-05-27T03:26:29.741Z,96.42
2018-05-27T03:27:29.738Z,96.51
2018-05-27T03:28:29.737Z,96.03
2018-05-27T03:29:29.731Z,96.70
2018-05-27T03:30:29.728Z,96.89
2018-05-27T03:31:29.725Z,96.03
2018-05-27T03:32:29.721Z,96.13
2018-05-27T03:33:29.721Z,96.22
2018-05-27T03:34:29.713Z,95.75
2018-05-27T03:35:29.715Z,95.55
2018-05-27T03:36:29.709Z,95.45
2018-05-27T03:37:29.707Z,95.36
2018-05-27T03:38:29.700Z,94.98
2018-05-27T03:39:29.697Z,94.88
2018-05-27T03:40:29.693Z,94.98
2018-05-27T03:41:29.690Z,94.69
2018-05-27T03:42:29.686Z,95.07
2018-05-27T03:43:29.686Z,94.59
2018-05-27T03:44:29.683Z,95.07
2018-05-27T03:45:29.677Z,94.78
2018-05-27T03:46:29.674Z,94.49
2018-05-27T03:47:29.669Z,93.63
2018-05-27T03:48:29.669Z,93.63
2018-05-27T03:49:29.664Z,92.77
2018-05-27T03:50:29.659Z,93.68
2018-05-27T03:51:29.656Z,93.29
2018-05-27T03:52:29.653Z,92.96
2018-05-27T03:53:29.649Z,92.10
2018-05-27T03:54:29.646Z,91.95
2018-05-27T03:55:29.643Z,90.60
2018-05-27T03:56:29.641Z,91.18
2018-05-27T03:57:29.639Z,91.28
2018-05-27T03:58:29.635Z,92.33
2018-05-27T03:59:29.632Z,92.24
2018-05-27T04:00:29.626Z,92.62
2018-05-27T04:01:29.623Z,92.52
2018-05-27T04:02:29.619Z,92.72
2018-05-27T04:03:29.618Z,93.10
2018-05-27T04:04:29.615Z,93.10
2018-05-27T04:05:29.611Z,93.19
2018-05-27T04:06:29.607Z,93.87
2018-05-27T04:07:29.606Z,93.54
2018-05-27T04:08:29.601Z,93.29
2018-05-27T04:09:29.598Z,93.39
2018-05-27T04:10:29.597Z,93.19
2018-05-27T04:11:29.592Z,93.68
2018-05-27T04:12:29.592Z,93.58
2018-05-27T04:13:29.585Z,93.49
2018-05-27T04:14:29.583Z,93.39
2018-05-27T04:15:29.583Z,93.29
2018-05-27T04:16:29.575Z,93.05
2018-05-27T04:17:29.576Z,93.39
2018-05-27T04:18:29.571Z,94.01
2018-05-27T04:19:29.570Z,94.06
2018-05-27T04:20:29.564Z,95.07
2018-05-27T04:21:29.562Z,95.21
2018-05-27T04:22:29.557Z,94.69
2018-05-27T04:23:29.553Z,94.59
2018-05-27T04:24:29.554Z,94.31
2018-05-27T04:25:29.749Z,94.49
2018-05-27T04:26:29.543Z,92.72
2018-05-27T04:27:29.544Z,91.85
2018-05-27T04:28:29.589Z,90.60
2018-05-27T04:29:29.534Z,89.36
2018-05-27T04:30:29.531Z,88.87
2018-05-27T04:31:29.526Z,89.11
2018-05-27T04:32:29.527Z,88.92
2018-05-27T04:33:29.520Z,88.82
2018-05-27T04:34:29.516Z,89.69
2018-05-27T04:35:29.513Z,90.17
2018-05-27T04:36:29.536Z,90.07
2018-05-27T04:37:29.507Z,89.98
2018-05-27T04:38:29.502Z,89.88
2018-05-27T04:39:29.501Z,89.50
2018-05-27T04:40:29.496Z,89.21
2018-05-27T04:41:29.493Z,89.50
2018-05-27T04:42:29.488Z,90.03
2018-05-27T04:43:29.485Z,90.51
2018-05-27T04:44:29.483Z,91.66
2018-05-27T04:45:29.480Z,92.33
2018-05-27T04:46:29.480Z,92.33
2018-05-27T04:47:29.473Z,92.14
2018-05-27T04:48:29.471Z,91.85
2018-05-27T04:49:29.466Z,91.28
2018-05-27T04:50:29.462Z,91.08
2018-05-27T04:51:29.465Z,90.12
2018-05-27T04:52:29.457Z,91.28
2018-05-27T04:53:29.458Z,91.90
2018-05-27T04:54:29.452Z,92.19
2018-05-27T04:55:29.447Z,91.95
2018-05-27T04:56:29.444Z,92.47
2018-05-27T04:57:29.441Z,92.09
2018-05-27T04:58:29.441Z,92.86
2018-05-27T04:59:29.437Z,92.57
2018-05-27T05:00:29.436Z,91.61
2018-05-27T05:01:29.429Z,91.80
2018-05-27T05:02:29.428Z,91.32
2018-05-27T05:03:29.428Z,91.03
2018-05-27T05:04:29.419Z,90.84
2018-05-27T05:05:29.417Z,91.42
2018-05-27T05:06:29.414Z,91.90
2018-05-27T05:07:29.410Z,91.42
2018-05-27T05:08:29.410Z,92.09
2018-05-27T05:09:29.419Z,92.47
2018-05-27T05:10:29.405Z,92.19
2018-05-27T05:11:29.403Z,91.71
2018-05-27T05:12:29.434Z,92.19
2018-05-27T05:13:29.396Z,92.19
2018-05-27T05:14:29.391Z,89.88
2018-05-27T05:15:29.396Z,89.78
2018-05-27T05:16:29.387Z,88.92
2018-05-27T05:17:29.587Z,88.24
2018-05-27T05:18:29.380Z,87.42
2018-05-27T05:19:29.380Z,88.39
2018-05-27T05:20:29.376Z,87.62
2018-05-27T05:21:29.376Z,88.39
2018-05-27T05:22:29.371Z,87.62
2018-05-27T05:23:29.367Z,87.71
2018-05-27T05:24:29.366Z,86.94
2018-05-27T05:25:29.363Z,87.13
2018-05-27T05:26:29.361Z,87.90
2018-05-27T05:27:29.357Z,87.71
2018-05-27T05:28:29.355Z,87.71
2018-05-27T05:29:29.352Z,86.79
2018-05-27T05:30:29.352Z,87.37
2018-05-27T05:31:29.350Z,87.46
2018-05-27T05:32:29.348Z,86.60
2018-05-27T05:33:29.343Z,85.64
2018-05-27T05:34:29.340Z,85.16
2018-05-27T05:35:29.339Z,85.74
2018-05-27T05:36:29.339Z,86.31
2018-05-27T05:37:29.334Z,85.64
2018-05-27T05:38:29.332Z,84.53
2018-05-27T05:39:29.329Z,84.05
2018-05-27T05:40:29.327Z,83.37
2018-05-27T05:41:29.326Z,83.66
2018-05-27T05:42:29.323Z,85.10
2018-05-27T05:43:29.321Z,85.97
2018-05-27T05:44:29.321Z,84.43
2018-05-27T05:45:29.319Z,84.62
2018-05-27T05:46:29.314Z,83.95
2018-05-27T05:47:29.313Z,85.00
2018-05-27T05:48:29.311Z,84.81
2018-05-27T05:49:29.309Z,85.00
2018-05-27T05:50:29.313Z,84.05
2018-05-27T05:51:29.306Z,84.05
2018-05-27T05:52:29.303Z,85.58
2018-05-27T05:53:29.305Z,85.39
2018-05-27T05:54:29.299Z,83.75
2018-05-27T05:55:29.298Z,83.22
2018-05-27T05:56:29.299Z,83.51
2018-05-27T05:57:29.294Z,83.31
2018-05-27T05:58:29.294Z,82.35
2018-05-27T05:59:29.293Z,81.48
2018-05-27T06:00:29.295Z,80.71
2018-05-27T06:01:29.288Z,81.48
2018-05-27T06:02:29.285Z,80.94
2018-05-27T06:03:29.288Z,81.14
2018-05-27T06:04:29.283Z,80.37
2018-05-27T06:05:29.282Z,80.76
2018-05-27T06:06:29.287Z,81.76
2018-05-27T06:07:29.284Z,80.99
2018-05-27T06:08:29.282Z,78.77
2018-05-27T06:09:29.277Z,80.51
2018-05-27T06:10:29.276Z,80.31
2018-05-27T06:11:29.277Z,80.54
2018-05-27T06:12:29.275Z,78.81
2018-05-27T06:13:29.318Z,78.61
2018-05-27T06:14:29.273Z,78.52
2018-05-27T06:15:29.272Z,78.58
2018-05-27T06:16:29.273Z,78.71
2018-05-27T06:17:29.474Z,78.42
2018-05-27T06:18:29.271Z,78.67
2018-05-27T06:19:29.271Z,79.87
2018-05-27T06:20:29.273Z,81.22
2018-05-27T06:21:29.271Z,80.74
2018-05-27T06:22:29.271Z,80.51
2018-05-27T06:23:29.269Z,78.19
2018-05-27T06:24:29.269Z,78.86
2018-05-27T06:25:29.273Z,79.64
2018-05-27T06:26:29.273Z,79.25
2018-05-27T06:27:29.270Z,79.25
2018-05-27T06:28:29.272Z,78.86
2018-05-27T06:29:29.473Z,78.86
2018-05-27T06:30:29.266Z,79.54
2018-05-27T06:31:29.267Z,81.18
2018-05-27T06:32:29.267Z,81.27
2018-05-27T06:33:29.271Z,80.93
2018-05-27T06:34:29.271Z,82.14
2018-05-27T06:35:29.266Z,81.41
2018-05-27T06:36:29.266Z,81.60
2018-05-27T06:37:29.265Z,80.35
2018-05-27T06:38:29.265Z,81.41
2018-05-27T06:39:29.266Z,79.19
2018-05-27T06:40:29.266Z,77.61
2018-05-27T06:41:29.266Z,78.29
2018-05-27T06:42:29.267Z,77.71
2018-05-27T06:43:29.269Z,77.71
2018-05-27T06:44:29.270Z,78.19
2018-05-27T06:45:29.267Z,78.09
2018-05-27T06:46:29.265Z,78.48
2018-05-27T06:47:29.266Z,78.09
2018-05-27T06:48:29.274Z,77.90
2018-05-27T06:49:29.268Z,77.90
2018-05-27T06:50:29.261Z,78.48
2018-05-27T06:51:29.261Z,78.67
2018-05-27T06:52:29.264Z,79.93
2018-05-27T06:53:29.260Z,78.52
2018-05-27T06:54:29.259Z,78.52
2018-05-27T06:55:29.263Z,79.29
2018-05-27T06:56:29.261Z,78.66
2018-05-27T06:57:29.259Z,78.56
2018-05-27T06:58:29.259Z,77.69
2018-05-27T06:59:29.259Z,77.21
2018-05-27T07:00:29.262Z,76.37
2018-05-27T07:01:29.261Z,75.99
2018-05-27T07:02:29.262Z,75.64
2018-05-27T07:03:29.262Z,74.48
2018-05-27T07:04:29.275Z,74.68
2018-05-27T07:05:29.264Z,74.58
2018-05-27T07:06:29.265Z,74.19
2018-05-27T07:07:29.267Z,75.06
2018-05-27T07:08:29.268Z,74.13
2018-05-27T07:09:29.271Z,71.72
2018-05-27T07:10:29.270Z,72.97
2018-05-27T07:11:29.276Z,72.10
2018-05-27T07:12:29.275Z,73.65
2018-05-27T07:13:29.283Z,73.94
2018-05-27T07:14:29.281Z,72.68
2018-05-27T07:15:29.285Z,73.97
2018-05-27T07:16:29.282Z,72.14
2018-05-27T07:17:29.285Z,70.98
2018-05-27T07:18:29.290Z,70.30
2018-05-27T07:19:29.291Z,70.43
2018-05-27T07:20:29.299Z,70.24
2018-05-27T07:21:29.299Z,70.47
2018-05-27T07:22:29.307Z,68.69
2018-05-27T07:23:29.305Z,68.33
2018-05-27T07:24:29.306Z,68.33
2018-05-27T07:25:29.310Z,70.04
2018-05-27T07:26:29.313Z,69.69
2018-05-27T07:27:29.317Z,67.95
2018-05-27T07:28:29.323Z,67.27
2018-05-27T07:29:29.327Z,67.37
2018-05-27T07:30:29.331Z,66.78
2018-05-27T07:31:29.335Z,67.27
2018-05-27T07:32:29.341Z,70.08
2018-05-27T07:33:29.348Z,69.89
2018-05-27T07:34:29.355Z,68.43
2018-05-27T07:35:29.356Z,69.69
2018-05-27T07:36:29.362Z,68.66
2018-05-27T07:37:29.364Z,68.76
2018-05-27T07:38:29.368Z,66.75
2018-05-27T07:39:29.375Z,67.82
2018-05-27T07:40:29.381Z,65.34
2018-05-27T07:41:29.387Z,66.30
2018-05-27T07:42:29.393Z,66.37
2018-05-27T07:43:29.399Z,64.62
2018-05-27T07:44:29.405Z,66.47
2018-05-27T07:45:29.414Z,65.98
2018-05-27T07:46:29.420Z,65.79
2018-05-27T07:47:29.422Z,65.50
2018-05-27T07:48:29.428Z,67.14
2018-05-27T07:49:29.434Z,66.85
2018-05-27T07:50:29.440Z,66.27
2018-05-27T07:51:29.447Z,64.95
2018-05-27T07:52:29.463Z,66.79
2018-05-27T07:53:29.469Z,63.88
2018-05-27T07:54:29.472Z,65.72
2018-05-27T07:55:29.476Z,64.17
2018-05-27T07:56:29.485Z,64.56
2018-05-27T07:57:29.493Z,63.30
2018-05-27T07:58:29.766Z,64.14
2018-05-27T07:59:29.511Z,64.34
2018-05-27T08:00:29.514Z,65.27
2018-05-27T08:01:29.521Z,65.66
2018-05-27T08:02:29.528Z,66.66
2018-05-27T08:03:29.537Z,65.89
2018-05-27T08:04:29.544Z,65.11
2018-05-27T08:05:29.550Z,65.82
2018-05-27T08:06:29.557Z,65.47
2018-05-27T08:07:29.565Z,64.11
2018-05-27T08:08:29.573Z,63.26
2018-05-27T08:09:29.585Z,62.98
2018-05-27T08:10:29.590Z,62.42
2018-05-27T08:11:29.598Z,63.62
2018-05-27T08:12:29.608Z,60.90
2018-05-27T08:13:29.621Z,60.25
2018-05-27T08:14:29.630Z,58.59
2018-05-27T08:15:29.638Z,59.08
2018-05-27T08:16:29.649Z,58.82
2018-05-27T08:17:29.662Z,58.75
2018-05-27T08:18:29.671Z,57.78
2018-05-27T08:19:29.683Z,58.49
2018-05-27T08:20:29.695Z,56.84
2018-05-27T08:21:29.708Z,55.76
2018-05-27T08:22:29.728Z,56.05
2018-05-27T08:23:29.731Z,55.47
2018-05-27T08:24:29.745Z,56.25
2018-05-27T08:25:29.766Z,56.71
2018-05-27T08:26:29.764Z,56.51
2018-05-27T08:27:29.775Z,57.87
2018-05-27T08:28:29.791Z,56.12
2018-05-27T08:29:29.801Z,56.12
2018-05-27T08:30:29.809Z,57.49
2018-05-27T08:31:29.824Z,56.39
2018-05-27T08:32:29.834Z,58.82
2018-05-27T08:33:29.841Z,58.53
2018-05-27T08:34:29.850Z,59.69
2018-05-27T08:35:29.864Z,58.50
2018-05-27T08:36:29.872Z,61.58
2018-05-27T08:37:29.878Z,60.41
2018-05-27T08:38:29.886Z,60.41
2018-05-27T08:39:29.895Z,60.41
2018-05-27T08:40:29.903Z,60.51
2018-05-27T08:41:29.914Z,61.58
2018-05-27T08:42:29.918Z,60.19
2018-05-27T08:43:29.963Z,59.90
2018-05-27T08:44:29.939Z,60.71
2018-05-27T08:46:29.951Z,61.61
2018-05-27T08:47:29.960Z,59.11
2018-05-27T08:48:29.975Z,60.47
2018-05-27T08:49:29.979Z,59.79
2018-05-27T08:50:29.988Z,62.45
2018-05-27T08:51:29.999Z,59.27
2018-05-27T08:52:30.023Z,60.36
2018-05-27T08:53:30.022Z,62.54
2018-05-27T08:54:30.035Z,59.33
2018-05-27T08:55:30.048Z,56.30
2018-05-27T08:56:30.055Z,56.89
2018-05-27T08:57:30.067Z,56.89
2018-05-27T08:58:30.078Z,56.01
2018-05-27T08:59:30.090Z,53.50
2018-05-27T09:00:30.105Z,56.62
2018-05-27T09:01:30.144Z,55.46
2018-05-27T09:02:30.130Z,54.31
2018-05-27T09:03:30.141Z,54.02
2018-05-27T09:04:30.154Z,54.34
2018-05-27T09:05:30.169Z,51.43
2018-05-27T09:06:30.183Z,51.43
2018-05-27T09:07:30.197Z,49.90
2018-05-27T09:08:30.213Z,54.32
2018-05-27T09:09:30.229Z,52.86
2018-05-27T09:10:30.243Z,50.44
2018-05-27T09:11:30.260Z,50.85
2018-05-27T09:12:30.276Z,48.50
2018-05-27T09:13:30.297Z,50.39
2018-05-27T09:14:30.311Z,46.67
2018-05-27T09:15:30.328Z,46.72
2018-05-27T09:16:30.342Z,47.28
2018-05-27T09:17:30.358Z,49.12
2018-05-27T09:18:30.372Z,48.34
2018-05-27T09:19:30.387Z,49.88
2018-05-27T09:20:30.403Z,50.24
2018-05-27T09:21:30.417Z,49.76
2018-05-27T09:22:30.431Z,49.56
2018-05-27T09:23:30.446Z,49.83
2018-05-27T09:24:30.463Z,50.41
2018-05-27T09:25:30.471Z,51.58
2018-05-27T09:26:30.484Z,49.51
2018-05-27T09:27:30.496Z,49.51
2018-05-27T09:28:30.513Z,50.07
2018-05-27T09:29:30.521Z,53.97
2018-05-27T09:30:30.531Z,51.41
2018-05-27T09:31:30.746Z,52.77
2018-05-27T09:32:30.553Z,54.13
2018-05-27T09:33:30.565Z,54.40
2018-05-27T09:34:30.779Z,52.94
2018-05-27T09:35:30.584Z,52.87
2018-05-27T09:36:30.599Z,53.75
2018-05-27T09:37:30.606Z,54.23
2018-05-27T09:38:30.620Z,53.48
2018-05-27T09:39:30.626Z,54.77
2018-05-27T09:40:30.643Z,53.80
2018-05-27T09:41:30.648Z,52.75
2018-05-27T09:42:30.658Z,51.09
2018-05-27T09:43:30.670Z,49.85
2018-05-27T09:44:30.681Z,50.99
2018-05-27T09:45:30.713Z,54.11
2018-05-27T09:46:30.706Z,51.58
2018-05-27T09:47:30.718Z,51.56
2018-05-27T09:48:30.730Z,52.04
2018-05-27T09:49:30.741Z,51.95
2018-05-27T09:50:30.748Z,52.14
2018-05-27T09:51:30.766Z,51.43
2018-05-27T09:52:30.772Z,52.40
2018-05-27T09:53:30.786Z,52.58
2018-05-27T09:54:30.789Z,52.55
2018-05-27T09:55:30.805Z,55.76
2018-05-27T09:56:30.807Z,54.69
2018-05-27T09:57:30.818Z,54.57
2018-05-27T09:58:30.829Z,55.83
2018-05-27T09:59:30.833Z,55.54
2018-05-27T10:00:30.842Z,55.64
2018-05-27T10:01:30.850Z,55.64
2018-05-27T10:02:30.856Z,54.08
2018-05-27T10:03:30.865Z,56.41
2018-05-27T10:04:30.872Z,56.39
2018-05-27T10:05:30.881Z,55.19
2018-05-27T10:06:30.887Z,55.29
2018-05-27T10:07:30.894Z,56.34
2018-05-27T10:08:30.900Z,55.75
2018-05-27T10:09:30.907Z,57.31
2018-05-27T10:10:30.912Z,57.76
2018-05-27T10:11:30.917Z,57.96
2018-05-27T10:12:30.924Z,59.12
2018-05-27T10:13:30.932Z,57.96
2018-05-27T10:14:30.935Z,56.11
2018-05-27T10:15:30.938Z,58.03
2018-05-27T10:16:30.942Z,58.12
2018-05-27T10:17:30.970Z,60.16
2018-05-27T10:18:30.951Z,58.12
2018-05-27T10:19:30.965Z,58.70
2018-05-27T10:20:30.960Z,57.80
2018-05-27T10:21:30.963Z,58.67
2018-05-27T10:22:30.966Z,59.94
2018-05-27T10:23:30.975Z,59.55
2018-05-27T10:24:30.973Z,60.49
2018-05-27T10:25:30.977Z,60.58
2018-05-27T10:26:30.978Z,62.52
2018-05-27T10:27:30.982Z,62.33
2018-05-27T10:28:30.988Z,62.04
2018-05-27T10:29:30.987Z,62.04
2018-05-27T10:30:30.989Z,62.04
2018-05-27T10:31:30.992Z,63.59
2018-05-27T10:32:30.995Z,63.46
2018-05-27T10:33:30.998Z,64.47
2018-05-27T10:34:30.998Z,64.24
2018-05-27T10:35:31.001Z,63.95
2018-05-27T10:36:31.003Z,64.53
2018-05-27T10:37:31.005Z,65.79
2018-05-27T10:38:31.009Z,65.75
2018-05-27T10:39:31.008Z,65.66
2018-05-27T10:40:31.013Z,66.53
2018-05-27T10:41:31.015Z,67.76
2018-05-27T10:42:31.012Z,71.50
2018-05-27T10:43:31.014Z,75.29
2018-05-27T10:44:31.014Z,80.72
2018-05-27T10:45:31.020Z,85.70
2018-05-27T10:46:31.018Z,83.01
2018-05-27T10:47:31.017Z,86.54
2018-05-27T10:48:31.017Z,90.58
2018-05-27T10:49:31.014Z,89.77
2018-05-27T10:50:31.017Z,90.06
2018-05-27T10:51:31.014Z,91.94
2018-05-27T10:52:31.014Z,90.59
2018-05-27T10:53:31.012Z,90.30
2018-05-27T10:54:31.008Z,89.63
2018-05-27T10:55:31.013Z,92.90
2018-05-27T10:56:31.006Z,89.82
2018-05-27T10:57:31.007Z,93.72
2018-05-27T10:58:31.002Z,95.26
2018-05-27T10:59:31.005Z,96.61
2018-05-27T11:00:30.999Z,96.61
2018-05-27T11:01:31.026Z,93.38
2018-05-27T11:02:30.995Z,93.96
2018-05-27T11:03:30.993Z,94.64
2018-05-27T11:04:30.991Z,94.73
2018-05-27T11:05:30.992Z,95.65
2018-05-27T11:06:30.986Z,95.84
2018-05-27T11:07:30.985Z,95.75
2018-05-27T11:08:31.185Z,94.40
2018-05-27T11:09:30.979Z,95.65
2018-05-27T11:10:30.975Z,95.17
2018-05-27T11:11:30.972Z,96.22
2018-05-27T11:12:30.971Z,95.75
2018-05-27T11:13:30.969Z,96.51
2018-05-27T11:14:30.965Z,94.78
2018-05-27T11:15:30.962Z,95.07
2018-05-27T11:16:30.960Z,95.55
2018-05-27T11:17:30.958Z,96.03
2018-05-27T11:18:30.955Z,96.61
2018-05-27T11:19:30.951Z,99.59
2018-05-27T11:20:30.949Z,98.91
2018-05-27T11:21:30.945Z,98.44
2018-05-27T11:22:30.950Z,99.11
2018-05-27T11:23:30.940Z,98.72
2018-05-27T11:24:30.936Z,99.99
2018-05-27T11:25:30.935Z,99.99
2018-05-27T11:26:30.933Z,99.99
2018-05-27T11:27:30.927Z,99.99
2018-05-27T11:28:30.924Z,99.99
2018-05-27T11:29:30.921Z,99.99
2018-05-27T11:30:30.916Z,99.99
2018-05-27T11:31:30.914Z,99.99
2018-05-27T11:32:30.915Z,99.99
2018-05-27T11:33:30.909Z,99.99
2018-05-27T11:34:30.903Z,99.99
2018-05-27T11:35:30.947Z,99.99
2018-05-27T11:36:30.900Z,99.99
2018-05-27T11:37:30.899Z,99.99
2018-05-27T11:38:30.894Z,99.99
2018-05-27T11:39:30.888Z,99.99
2018-05-27T11:40:30.885Z,99.99
2018-05-27T11:41:30.883Z,99.99
2018-05-27T11:42:30.930Z,99.99
2018-05-27T11:43:30.876Z,99.99
2018-05-27T11:44:30.873Z,99.99
2018-05-27T11:45:30.870Z,99.99
2018-05-27T11:46:30.867Z,99.99
2018-05-27T11:47:30.878Z,99.99
2018-05-27T11:48:30.866Z,99.99
2018-05-27T11:49:30.867Z,99.99
2018-05-27T11:50:30.857Z,99.99
2018-05-27T11:51:30.858Z,99.99
2018-05-27T11:52:30.852Z,99.99
2018-05-27T11:53:30.852Z,99.99
2018-05-27T11:54:30.846Z,99.99
2018-05-27T11:55:30.847Z,99.99
2018-05-27T11:56:30.841Z,99.99
2018-05-27T11:57:30.838Z,99.99
2018-05-27T11:58:30.835Z,99.99
2018-05-27T11:59:30.832Z,99.99
2018-05-27T12:00:30.836Z,99.99
2018-05-27T12:01:30.831Z,99.99
2018-05-27T12:02:30.825Z,99.99
2018-05-27T12:03:30.824Z,99.99
2018-05-27T12:04:30.821Z,99.99
2018-05-27T12:05:30.818Z,99.99
2018-05-27T12:06:30.815Z,99.99
2018-05-27T12:07:30.813Z,99.99
2018-05-27T12:08:30.811Z,99.99
2018-05-27T12:09:31.206Z,99.99
2018-05-27T12:10:30.806Z,99.99
2018-05-27T12:11:30.805Z,99.99
2018-05-27T12:12:30.814Z,99.99
2018-05-27T12:13:30.807Z,99.99
2018-05-27T12:14:30.799Z,99.99
2018-05-27T12:15:30.800Z,99.99
2018-05-27T12:16:30.796Z,99.99
2018-05-27T12:17:30.794Z,99.99
2018-05-27T12:18:30.792Z,99.99
2018-05-27T12:19:30.790Z,99.99
2018-05-27T12:20:30.791Z,99.99
2018-05-27T12:21:30.788Z,99.99
2018-05-27T12:22:30.789Z,99.99
2018-05-27T12:23:30.784Z,99.99
2018-05-27T12:24:30.790Z,99.99
2018-05-27T12:25:30.785Z,99.99
2018-05-27T12:26:30.782Z,99.99
2018-05-27T12:27:30.779Z,99.99
2018-05-27T12:28:30.778Z,99.99
2018-05-27T12:29:30.779Z,99.99
2018-05-27T12:30:30.775Z,99.99
2018-05-27T12:31:30.774Z,99.99
2018-05-27T12:32:30.773Z,99.99
2018-05-27T12:33:30.779Z,99.99
2018-05-27T12:34:30.775Z,99.99
2018-05-27T12:35:30.768Z,99.99
2018-05-27T12:36:30.770Z,99.99
2018-05-27T12:37:30.766Z,99.99
2018-05-27T12:38:30.766Z,99.99
2018-05-27T12:39:30.966Z,99.99
2018-05-27T12:40:30.766Z,99.99
2018-05-27T12:41:30.761Z,99.99
2018-05-27T12:42:30.760Z,99.99
2018-05-27T12:43:30.769Z,99.99
2018-05-27T12:44:30.758Z,99.99
2018-05-27T12:45:30.758Z,99.99
2018-05-27T12:46:30.757Z,99.99
2018-05-27T12:47:30.756Z,99.99
2018-05-27T12:48:30.756Z,99.99
2018-05-27T12:49:30.762Z,99.99
2018-05-27T12:50:30.758Z,99.99
2018-05-27T12:51:30.755Z,98.63
2018-05-27T12:52:30.755Z,99.99
2018-05-27T12:53:30.774Z,99.99
2018-05-27T12:54:30.754Z,99.99
2018-05-27T12:55:30.759Z,99.99